Time;durP1;ratioP1;P1;durP2;ratioP2;P2;SDS_P1;SDS_P2;PMS_P1;PMS_P2;Temp;Humidity;BMP_temperature;BMP_pressure;BME280_temperature;BME280_humidity;BME280_pressure;Samples;Min_cycle;Max_cycle;Signal;HPM_P1;HPM_P2
2021/08/02 00:00:28;;;;;;;8.40;4.03;;;665.60;2432.00;;;;;;5026289;28;20030;-74
2021/08/02 00:03:04;;;;;;;8.45;4.50;;;640.80;2432.00;;;;;;5030752;28;20018;-74
2021/08/02 00:05:35;;;;;;;10.85;4.80;;;640.70;2432.00;;;;;;5032223;28;20025;-74
2021/08/02 00:08:02;;;;;;;9.75;4.68;;;640.70;2432.00;;;;;;5032177;28;20029;-74
2021/08/02 00:10:35;;;;;;;7.35;4.38;;;640.70;2432.00;;;;;;5025456;28;20117;-74
2021/08/02 00:13:10;;;;;;;9.70;4.82;;;640.60;2432.00;;;;;;5028048;28;20068;-74
2021/08/02 00:15:37;;;;;;;8.88;4.63;;;640.50;2432.00;;;;;;5029023;28;20033;-73
2021/08/02 00:18:03;;;;;;;11.75;4.97;;;640.40;2432.00;;;;;;5029091;28;20026;-74
2021/08/02 00:20:32;;;;;;;9.30;4.25;;;640.30;2432.00;;;;;;5030322;28;20022;-74
2021/08/02 00:23:05;;;;;;;10.45;4.90;;;640.20;2432.00;;;;;;5029285;28;20029;-74
2021/08/02 00:25:31;;;;;;;7.68;5.13;;;640.10;2432.00;;;;;;5028769;28;20084;-74
2021/08/02 00:27:57;;;;;;;7.50;5.38;;;640.00;2432.00;;;;;;5031357;28;20431;-73
2021/08/02 00:30:26;;;;;;;10.13;5.65;;;615.30;2432.00;;;;;;5027869;28;20041;-74
2021/08/02 00:32:52;;;;;;;8.10;6.55;;;615.30;2432.00;;;;;;5030652;28;20029;-74
2021/08/02 00:35:19;;;;;;;12.55;7.00;;;615.20;2432.00;;;;;;5026769;28;20029;-74
2021/08/02 00:38:05;;;;;;;11.40;5.97;;;615.20;2432.00;;;;;;5026653;28;20488;-74
2021/08/02 00:40:49;;;;;;;8.07;5.22;;;615.10;2432.00;;;;;;5006923;28;20038;-74
2021/08/02 00:43:57;;;;;;;12.98;5.63;;;615.00;2432.00;;;;;;5007971;28;20121;-74
2021/08/02 00:46:26;;;;;;;8.93;4.60;;;614.90;2432.00;;;;;;5008712;28;20116;-74
2021/08/02 00:49:06;;;;;;;10.23;5.28;;;614.80;2432.00;;;;;;4992496;28;20037;-74
2021/08/02 00:51:39;;;;;;;10.07;4.75;;;614.80;2432.00;;;;;;5007669;28;20074;-74
2021/08/02 00:54:05;;;;;;;6.47;4.18;;;614.70;2432.00;;;;;;5008941;28;20092;-74
2021/08/02 00:56:33;;;;;;;6.38;4.38;;;614.70;2432.00;;;;;;5009530;28;20396;-74
2021/08/02 00:59:05;;;;;;;7.38;5.18;;;614.70;2432.00;;;;;;5004634;28;20068;-74
2021/08/02 01:01:35;;;;;;;12.52;5.07;;;614.60;2432.00;;;;;;4990009;28;20037;-74
2021/08/02 01:04:03;;;;;;;15.75;6.95;;;614.50;2432.00;;;;;;5006898;28;20054;-74
2021/08/02 01:06:30;;;;;;;12.20;7.03;;;614.50;2432.00;;;;;;5001206;28;20121;-74
2021/08/02 01:09:00;;;;;;;10.40;5.78;;;614.60;2432.00;;;;;;5011639;28;20017;-74
2021/08/02 01:11:28;;;;;;;11.65;5.32;;;614.50;2432.00;;;;;;5002595;28;20029;-74
2021/08/02 01:13:55;;;;;;;11.32;6.30;;;614.50;2432.00;;;;;;5009012;28;20500;-74
2021/08/02 01:16:22;;;;;;;8.52;6.47;;;614.40;2432.00;;;;;;5009316;28;20188;-74
2021/08/02 01:18:48;;;;;;;11.70;6.53;;;614.40;2432.00;;;;;;5028813;28;20037;-74
2021/08/02 01:21:19;;;;;;;13.55;6.78;;;589.70;2432.00;;;;;;5063193;28;20032;-74
2021/08/02 01:23:47;;;;;;;11.40;7.03;;;589.70;2432.00;;;;;;5029975;28;20487;-74
2021/08/02 01:26:58;;;;;;;12.38;7.13;;;589.70;2432.00;;;;;;5027922;28;20100;-74
2021/08/02 01:30:01;;;;;;;8.63;5.80;;;589.60;2432.00;;;;;;5010777;28;20029;-74
2021/08/02 01:32:26;;;;;;;11.55;6.63;;;589.60;2432.00;;;;;;5027577;28;20110;-74
2021/08/02 01:34:52;;;;;;;9.40;5.63;;;589.60;2432.00;;;;;;5027307;28;20129;-74
2021/08/02 01:37:18;;;;;;;7.50;4.75;;;589.70;2432.00;;;;;;5031117;28;20030;-74
2021/08/02 01:39:51;;;;;;;11.38;6.70;;;589.60;2432.00;;;;;;5029566;28;20033;-74
2021/08/02 01:42:17;;;;;;;11.85;6.22;;;589.70;2432.00;;;;;;5029707;28;20030;-74
2021/08/02 01:44:43;;;;;;;11.45;6.10;;;589.70;2432.00;;;;;;5029813;28;20044;-74
2021/08/02 01:47:15;;;;;;;9.07;6.85;;;589.70;2432.00;;;;;;5030752;28;20029;-74
2021/08/02 01:50:02;;;;;;;13.45;7.47;;;589.70;2432.00;;;;;;5034682;28;20041;-74
2021/08/02 01:52:38;;;;;;;13.40;7.07;;;614.40;2432.00;;;;;;5017886;28;20026;-74
2021/08/02 01:55:13;;;;;;;9.68;6.45;;;589.70;2432.00;;;;;;5029321;28;20041;-74
2021/08/02 01:57:44;;;;;;;10.40;5.15;;;589.60;2432.00;;;;;;5031106;28;20029;-74
2021/08/02 02:00:14;;;;;;;13.65;6.18;;;589.50;2432.00;;;;;;5021541;28;20025;-74
2021/08/02 02:02:44;;;;;;;8.63;6.05;;;589.50;2432.00;;;;;;5025774;28;20092;-75
2021/08/02 02:05:14;;;;;;;10.55;6.75;;;589.50;2432.00;;;;;;5025519;28;20064;-74
2021/08/02 02:07:48;;;;;;;11.80;7.30;;;589.50;2432.00;;;;;;5030337;28;20030;-74
2021/08/02 02:10:14;;;;;;;12.98;7.32;;;589.50;2432.00;;;;;;5023601;28;20026;-74
2021/08/02 02:12:43;;;;;;;12.13;6.95;;;589.30;2432.00;;;;;;5028433;28;20481;-74
2021/08/02 02:15:09;;;;;;;8.88;6.55;;;589.30;2432.00;;;;;;5030733;28;20025;-74
2021/08/02 02:17:37;;;;;;;12.80;6.50;;;589.30;2432.00;;;;;;5027957;28;20030;-74
2021/08/02 02:20:05;;;;;;;9.18;6.10;;;589.30;2432.00;;;;;;5025149;28;20036;-75
2021/08/02 02:22:31;;;;;;;13.13;7.43;;;589.30;2432.00;;;;;;5027970;28;20160;-74
2021/08/02 02:24:58;;;;;;;10.77;7.35;;;589.30;2432.00;;;;;;5030984;28;20030;-74
2021/08/02 02:27:25;;;;;;;10.75;8.13;;;589.20;2432.00;;;;;;5033957;28;20388;-74
2021/08/02 02:29:51;;;;;;;20.48;9.30;;;589.20;2432.00;;;;;;5026569;28;20029;-74
2021/08/02 02:32:19;;;;;;;12.70;8.45;;;589.10;2432.00;;;;;;5016633;28;20030;-74
2021/08/02 02:34:47;;;;;;;13.00;8.07;;;589.10;2432.00;;;;;;5032909;28;20400;-74
2021/08/02 02:37:14;;;;;;;9.85;6.70;;;589.10;2432.00;;;;;;5034020;28;20037;-74
2021/08/02 02:39:41;;;;;;;11.93;6.60;;;589.00;2432.00;;;;;;5032748;28;20806;-74
2021/08/02 02:42:08;;;;;;;10.43;5.97;;;588.90;2432.00;;;;;;5027690;28;20144;-74
2021/08/02 02:44:35;;;;;;;9.85;6.63;;;588.90;2432.00;;;;;;5023611;28;20029;-74
2021/08/02 02:47:02;;;;;;;9.82;7.65;;;588.80;2432.00;;;;;;5028627;28;20772;-74
2021/08/02 02:49:29;;;;;;;11.75;9.85;;;588.80;2432.00;;;;;;5028103;28;20022;-74
2021/08/02 02:51:56;;;;;;;13.23;8.32;;;588.80;2432.00;;;;;;5021275;28;20030;-74
2021/08/02 02:54:22;;;;;;;10.55;7.22;;;588.80;2432.00;;;;;;5042945;28;20091;-74
2021/08/02 02:56:51;;;;;;;11.07;7.35;;;564.10;2432.00;;;;;;5037633;28;20079;-74
2021/08/02 02:59:17;;;;;;;9.68;6.97;;;564.10;2432.00;;;;;;5033325;28;20738;-74
2021/08/02 03:01:45;;;;;;;10.30;5.78;;;564.10;2432.00;;;;;;5031305;28;20156;-74
2021/08/02 03:04:13;;;;;;;10.02;5.78;;;564.00;2432.00;;;;;;5024696;28;20053;-74
2021/08/02 03:06:41;;;;;;;8.15;5.65;;;563.80;2432.00;;;;;;5026324;28;20022;-74
2021/08/02 03:09:08;;;;;;;5.90;5.07;;;563.80;2432.00;;;;;;5031951;28;20084;-74
2021/08/02 03:11:36;;;;;;;6.60;5.57;;;563.80;2432.00;;;;;;5033380;28;20431;-74
2021/08/02 03:14:02;;;;;;;10.57;7.22;;;563.70;2432.00;;;;;;5023465;28;20099;-74
2021/08/02 03:16:28;;;;;;;10.45;7.28;;;563.70;2432.00;;;;;;5041176;28;20469;-74
2021/08/02 03:18:54;;;;;;;10.52;7.70;;;563.70;2432.00;;;;;;5038107;28;20025;-74
2021/08/02 03:21:20;;;;;;;8.88;7.55;;;563.70;2432.00;;;;;;5029161;28;20028;-74
2021/08/02 03:24:06;;;;;;;9.45;6.90;;;563.70;2432.00;;;;;;5030830;28;20036;-74
2021/08/02 03:26:47;;;;;;;7.20;6.40;;;563.60;2432.00;;;;;;5021812;28;20079;-74
2021/08/02 03:29:29;;;;;;;8.60;6.70;;;563.50;2432.00;;;;;;5028850;28;20045;-75
2021/08/02 03:32:11;;;;;;;12.43;8.52;;;563.60;2432.00;;;;;;5034761;28;20029;-74
2021/08/02 03:34:37;;;;;;;12.27;9.45;;;563.60;2432.00;;;;;;5040203;28;20037;-74
2021/08/02 03:37:07;;;;;;;12.75;8.27;;;563.50;2432.00;;;;;;5030712;28;20109;-74
2021/08/02 03:39:34;;;;;;;9.52;6.95;;;563.50;2432.00;;;;;;5033616;28;20033;-74
2021/08/02 03:42:02;;;;;;;8.88;6.28;;;563.40;2432.00;;;;;;5036232;28;20040;-74
2021/08/02 03:44:30;;;;;;;11.65;6.63;;;563.30;2432.00;;;;;;5029888;28;20041;-74
2021/08/02 03:46:56;;;;;;;7.30;5.63;;;563.20;2432.00;;;;;;5039706;28;20025;-73
2021/08/02 03:49:22;;;;;;;7.10;5.60;;;563.30;2432.00;;;;;;5032099;28;20034;-74
2021/08/02 03:51:57;;;;;;;7.10;5.57;;;563.20;2432.00;;;;;;5030471;28;20053;-74
2021/08/02 03:54:26;;;;;;;9.00;5.25;;;563.30;2432.00;;;;;;5031721;28;20026;-75
2021/08/02 03:56:52;;;;;;;6.07;5.00;;;538.50;2406.40;;;;;;5029660;28;20037;-74
2021/08/02 03:59:18;;;;;;;8.50;5.80;;;538.50;2406.40;;;;;;5030986;28;20088;-75
2021/08/02 04:01:45;;;;;;;8.15;5.93;;;538.40;2406.40;;;;;;5030101;28;20026;-74
2021/08/02 04:04:11;;;;;;;6.82;5.35;;;538.30;2406.40;;;;;;5035634;28;20050;-74
2021/08/02 04:06:38;;;;;;;6.05;5.15;;;538.30;2406.40;;;;;;5038154;28;20028;-74
2021/08/02 04:09:06;;;;;;;6.32;4.55;;;538.40;2406.40;;;;;;5038194;28;20532;-74
2021/08/02 04:11:32;;;;;;;7.30;5.15;;;538.30;2406.40;;;;;;5018665;28;20018;-74
2021/08/02 04:13:58;;;;;;;9.10;5.10;;;538.20;2406.40;;;;;;5030708;28;20400;-74
2021/08/02 04:16:24;;;;;;;7.50;5.28;;;538.20;2406.40;;;;;;5031842;28;20029;-75
2021/08/02 04:18:50;;;;;;;6.07;4.35;;;538.10;2406.40;;;;;;5026928;28;20037;-75
2021/08/02 04:21:16;;;;;;;10.27;5.82;;;538.10;2406.40;;;;;;5046079;28;20037;-75
2021/08/02 04:23:41;;;;;;;11.52;5.28;;;538.00;2406.40;;;;;;5028753;28;20042;-76
2021/08/02 04:26:11;;;;;;;6.93;5.20;;;537.90;2406.40;;;;;;5028692;28;20104;-75
2021/08/02 04:28:38;;;;;;;6.63;5.50;;;537.70;2406.40;;;;;;5030505;28;20025;-75
2021/08/02 04:31:03;;;;;;;10.25;6.10;;;537.70;2406.40;;;;;;5029744;28;20053;-75
2021/08/02 04:33:29;;;;;;;8.95;5.85;;;537.60;2406.40;;;;;;5024097;28;20515;-75
2021/08/02 04:35:55;;;;;;;7.10;4.80;;;537.60;2406.40;;;;;;5030420;28;20021;-75
2021/08/02 04:38:21;;;;;;;8.07;5.90;;;512.90;2380.80;;;;;;5030310;28;20033;-75
2021/08/02 04:40:46;;;;;;;10.70;6.80;;;512.90;2380.80;;;;;;5030167;28;20062;-75
2021/08/02 04:43:12;;;;;;;10.93;6.78;;;537.60;2406.40;;;;;;5030359;28;20021;-75
2021/08/02 04:45:38;;;;;;;8.20;6.93;;;537.60;2406.40;;;;;;5030016;28;20029;-75
2021/08/02 04:48:04;;;;;;;9.30;6.20;;;537.70;2406.40;;;;;;5030597;28;20017;-75
2021/08/02 04:50:29;;;;;;;7.90;6.32;;;537.70;2406.40;;;;;;5029800;28;20030;-75
2021/08/02 04:52:55;;;;;;;11.38;7.18;;;537.70;2406.40;;;;;;5040745;28;20028;-75
2021/08/02 04:55:22;;;;;;;8.10;6.10;;;537.70;2406.40;;;;;;5033581;28;20044;-75
2021/08/02 04:57:48;;;;;;;9.63;5.53;;;537.90;2406.40;;;;;;5031053;28;20021;-75
2021/08/02 05:00:14;;;;;;;10.32;6.22;;;538.00;2406.40;;;;;;5030336;28;20037;-75
2021/08/02 05:02:40;;;;;;;9.05;5.57;;;538.20;2406.40;;;;;;5029894;28;20108;-76
2021/08/02 05:05:06;;;;;;;7.85;5.57;;;538.30;2406.40;;;;;;5030754;28;20539;-75
2021/08/02 05:07:32;;;;;;;7.07;5.30;;;538.20;2406.40;;;;;;5032652;28;20484;-75
2021/08/02 05:09:58;;;;;;;9.48;6.45;;;538.20;2406.40;;;;;;5031578;28;20025;-75
2021/08/02 05:12:23;;;;;;;7.38;5.75;;;538.10;2406.40;;;;;;5020160;28;20025;-75
2021/08/02 05:14:49;;;;;;;6.80;5.43;;;538.10;2406.40;;;;;;5014586;28;20034;-75
2021/08/02 05:17:15;;;;;;;13.43;7.45;;;538.00;2406.40;;;;;;5035944;28;20033;-75
2021/08/02 05:19:41;;;;;;;10.82;6.40;;;537.90;2406.40;;;;;;5033501;28;20114;-76
2021/08/02 05:22:06;;;;;;;10.02;6.93;;;537.80;2406.40;;;;;;5033328;28;20030;-76
2021/08/02 05:24:32;;;;;;;7.28;6.40;;;537.80;2406.40;;;;;;5070013;28;20399;-75
2021/08/02 05:26:59;;;;;;;9.25;5.90;;;537.80;2406.40;;;;;;5041338;28;20029;-75
2021/08/02 05:29:25;;;;;;;8.05;6.10;;;537.90;2406.40;;;;;;5023797;28;20685;-75
2021/08/02 05:31:51;;;;;;;10.07;6.30;;;538.00;2406.40;;;;;;5030384;28;20029;-76
2021/08/02 05:34:17;;;;;;;9.50;6.10;;;538.10;2406.40;;;;;;5030186;28;20040;-75
2021/08/02 05:36:43;;;;;;;10.73;5.38;;;538.20;2406.40;;;;;;5033607;28;20480;-75
2021/08/02 05:39:09;;;;;;;9.52;5.07;;;538.10;2406.40;;;;;;5030375;28;20033;-75
2021/08/02 05:41:35;;;;;;;7.32;5.35;;;538.00;2406.40;;;;;;5022526;28;20392;-75
2021/08/02 05:44:01;;;;;;;10.10;6.63;;;538.00;2406.40;;;;;;5025694;28;20037;-75
2021/08/02 05:46:27;;;;;;;7.40;5.40;;;538.00;2406.40;;;;;;5032029;28;20078;-75
2021/08/02 05:48:53;;;;;;;6.95;5.00;;;538.10;2406.40;;;;;;5032091;28;20102;-76
2021/08/02 05:51:19;;;;;;;6.85;4.40;;;538.40;2406.40;;;;;;5032766;28;20025;-75
2021/08/02 05:53:44;;;;;;;6.72;3.70;;;563.30;2432.00;;;;;;5033260;28;20033;-75
2021/08/02 05:56:11;;;;;;;5.88;3.60;;;563.40;2432.00;;;;;;5034140;28;20056;-75
2021/08/02 05:58:38;;;;;;;8.00;4.88;;;563.70;2432.00;;;;;;5032563;28;20130;-75
2021/08/02 06:01:03;;;;;;;5.05;2.97;;;564.00;2432.00;;;;;;5033726;28;20037;-74
2021/08/02 06:03:29;;;;;;;5.22;3.67;;;564.00;2432.00;;;;;;5028781;28;20050;-74
2021/08/02 06:05:55;;;;;;;4.57;3.15;;;564.10;2432.00;;;;;;5031818;28;20021;-75
2021/08/02 06:08:21;;;;;;;7.07;3.22;;;589.00;2432.00;;;;;;5030475;28;20511;-75
2021/08/02 06:10:47;;;;;;;5.13;3.20;;;589.30;2432.00;;;;;;5029156;28;20022;-74
2021/08/02 06:13:13;;;;;;;4.93;2.88;;;589.60;2432.00;;;;;;5024528;28;20095;-75
2021/08/02 06:15:39;;;;;;;5.60;3.33;;;614.40;2432.00;;;;;;5046017;28;20484;-75
2021/08/02 06:18:05;;;;;;;6.30;2.90;;;589.60;2432.00;;;;;;5033860;28;20100;-75
2021/08/02 06:20:31;;;;;;;5.65;3.40;;;589.60;2432.00;;;;;;5036544;28;20029;-75
2021/08/02 06:22:56;;;;;;;4.30;3.40;;;589.30;2432.00;;;;;;5030348;28;20528;-75
2021/08/02 06:25:22;;;;;;;10.05;4.30;;;589.30;2432.00;;;;;;5029211;28;20463;-75
2021/08/02 06:27:48;;;;;;;6.30;3.78;;;589.20;2432.00;;;;;;5042159;28;20029;-75
2021/08/02 06:30:14;;;;;;;5.68;3.35;;;589.00;2432.00;;;;;;5031407;28;20029;-75
2021/08/02 06:32:39;;;;;;;7.70;3.42;;;564.10;2432.00;;;;;;5032029;28;20475;-79
2021/08/02 06:35:05;;;;;;;13.60;4.70;;;564.00;2432.00;;;;;;5032332;28;20029;-81
2021/08/02 06:37:31;;;;;;;11.65;5.90;;;563.80;2432.00;;;;;;5032466;28;20034;-80
2021/08/02 06:39:57;;;;;;;10.05;6.28;;;563.70;2432.00;;;;;;5032529;28;20029;-79
2021/08/02 06:42:22;;;;;;;11.13;4.93;;;563.30;2432.00;;;;;;5032740;28;20021;-79
2021/08/02 06:44:48;;;;;;;9.05;6.47;;;538.40;2406.40;;;;;;5033146;28;20476;-79
2021/08/02 06:47:14;;;;;;;9.75;5.75;;;538.10;2406.40;;;;;;5031463;28;20116;-77
2021/08/02 06:49:40;;;;;;;10.60;6.20;;;537.90;2406.40;;;;;;5031912;28;20033;-78
2021/08/02 06:52:06;;;;;;;7.70;4.80;;;537.90;2406.40;;;;;;5032934;28;20025;-76
2021/08/02 06:54:32;;;;;;;6.75;4.78;;;537.80;2406.40;;;;;;5032580;28;20075;-77
2021/08/02 06:56:57;;;;;;;6.65;4.53;;;537.90;2406.40;;;;;;5039034;28;20098;-76
2021/08/02 06:59:23;;;;;;;4.80;4.25;;;538.00;2406.40;;;;;;5033614;28;20033;-76
2021/08/02 07:01:49;;;;;;;6.47;4.35;;;538.10;2406.40;;;;;;5033687;28;20716;-77
2021/08/02 07:04:15;;;;;;;9.32;3.90;;;538.30;2406.40;;;;;;5015889;28;20100;-76
2021/08/02 07:06:41;;;;;;;5.93;3.85;;;563.30;2432.00;;;;;;5026637;28;20112;-77
2021/08/02 07:09:08;;;;;;;8.25;3.78;;;563.30;2432.00;;;;;;5028386;28;20025;-77
2021/08/02 07:11:33;;;;;;;6.13;4.10;;;563.50;2432.00;;;;;;5023587;28;20021;-77
2021/08/02 07:13:59;;;;;;;4.90;3.10;;;563.60;2432.00;;;;;;5035946;28;20580;-77
2021/08/02 07:16:25;;;;;;;5.82;3.63;;;563.70;2432.00;;;;;;5030823;28;20387;-77
2021/08/02 07:18:54;;;;;;;3.58;3.10;;;563.70;2432.00;;;;;;5033801;28;20033;-78
2021/08/02 07:21:21;;;;;;;6.63;3.60;;;564.00;2432.00;;;;;;5020981;28;20026;-77
2021/08/02 07:23:47;;;;;;;4.30;2.97;;;588.80;2432.00;;;;;;5023588;28;20411;-78
2021/08/02 07:26:13;;;;;;;7.20;3.25;;;589.30;2432.00;;;;;;5037424;28;20033;-78
2021/08/02 07:28:39;;;;;;;4.25;3.15;;;589.60;2432.00;;;;;;5035047;28;20108;-78
2021/08/02 07:31:05;;;;;;;3.60;2.78;;;589.60;2432.00;;;;;;5020834;28;20140;-78
2021/08/02 07:33:31;;;;;;;5.05;3.03;;;614.40;2432.00;;;;;;5030870;28;20068;-78
2021/08/02 07:35:57;;;;;;;3.80;2.97;;;614.80;2432.00;;;;;;5030462;28;20106;-77
2021/08/02 07:38:23;;;;;;;3.58;2.55;;;614.90;2432.00;;;;;;5030800;28;20040;-77
2021/08/02 07:40:48;;;;;;;5.10;2.83;;;615.10;2432.00;;;;;;5024880;28;20509;-78
2021/08/02 07:43:14;;;;;;;3.97;2.90;;;640.10;2432.00;;;;;;5021138;28;20030;-77
2021/08/02 07:45:40;;;;;;;4.90;2.78;;;640.30;2432.00;;;;;;5027049;28;20109;-78
2021/08/02 07:48:06;;;;;;;4.45;2.95;;;640.10;2432.00;;;;;;5029078;28;20388;-78
2021/08/02 07:50:32;;;;;;;5.70;3.83;;;640.00;2432.00;;;;;;5027772;28;20025;-79
2021/08/02 07:52:58;;;;;;;7.10;2.75;;;615.00;2432.00;;;;;;5030557;28;20030;-78
2021/08/02 07:55:24;;;;;;;5.53;3.05;;;614.90;2432.00;;;;;;5032330;28;20029;-77
2021/08/02 07:57:50;;;;;;;6.32;4.68;;;615.20;2432.00;;;;;;5030633;28;20029;-77
2021/08/02 08:00:18;;;;;;;5.50;3.40;;;640.00;2432.00;;;;;;5031263;28;20033;-77
2021/08/02 08:02:45;;;;;;;7.03;3.35;;;640.30;2432.00;;;;;;5031742;28;20079;-77
2021/08/02 08:05:12;;;;;;;6.30;3.55;;;640.40;2432.00;;;;;;5053811;28;20046;-77
2021/08/02 08:07:45;;;;;;;4.25;2.97;;;640.60;2432.00;;;;;;5036185;28;20048;-77
2021/08/02 08:10:12;;;;;;;4.53;2.58;;;640.80;2432.00;;;;;;5034956;28;20025;-77
2021/08/02 08:12:38;;;;;;;5.88;3.05;;;665.60;2432.00;;;;;;5031141;28;20030;-77
2021/08/02 08:15:04;;;;;;;7.20;2.70;;;666.00;2432.00;;;;;;5027277;28;20372;-78
2021/08/02 08:17:30;;;;;;;8.57;3.20;;;666.20;2432.00;;;;;;5016607;28;20434;-78
2021/08/02 08:19:56;;;;;;;5.40;2.90;;;666.10;2432.00;;;;;;5039607;28;20026;-78
2021/08/02 08:22:21;;;;;;;5.80;2.63;;;666.00;2432.00;;;;;;5032712;28;20033;-77
2021/08/02 08:24:49;;;;;;;3.95;2.50;;;666.10;2432.00;;;;;;5038124;28;20033;-78
2021/08/02 08:27:15;;;;;;;5.75;2.70;;;666.50;2432.00;;;;;;5032696;28;20022;-77
2021/08/02 08:29:41;;;;;;;7.38;3.35;;;691.50;2432.00;;;;;;5018484;28;20069;-77
2021/08/02 08:32:07;;;;;;;5.85;3.28;;;691.70;2432.00;;;;;;5032479;28;20048;-76
2021/08/02 08:34:33;;;;;;;4.68;2.70;;;691.90;2432.00;;;;;;5017870;28;20117;-77
2021/08/02 08:36:59;;;;;;;5.15;2.80;;;692.00;2432.00;;;;;;5018077;28;20117;-77
2021/08/02 08:39:24;;;;;;;3.88;2.90;;;716.90;2432.00;;;;;;5029952;28;20071;-77
2021/08/02 08:41:51;;;;;;;4.75;2.75;;;717.10;2432.00;;;;;;5031176;28;20083;-78
2021/08/02 08:44:20;;;;;;;3.75;2.70;;;717.60;2380.80;;;;;;5031707;28;20763;-78
2021/08/02 08:46:45;;;;;;;4.38;2.50;;;742.90;2355.20;;;;;;5030037;28;20032;-78
2021/08/02 08:49:11;;;;;;;12.10;3.80;;;742.90;2329.60;;;;;;5029918;28;20420;-78
2021/08/02 08:51:39;;;;;;;7.50;3.38;;;742.60;2355.20;;;;;;5030275;28;20032;-78
2021/08/02 08:54:08;;;;;;;4.10;2.80;;;742.40;2380.80;;;;;;5026482;28;20033;-78
2021/08/02 08:56:34;;;;;;;4.30;2.38;;;717.50;2304.00;;;;;;5036954;28;20033;-78
2021/08/02 08:58:59;;;;;;;7.25;2.70;;;717.30;2329.60;;;;;;5030405;28;20404;-78
2021/08/02 09:01:30;;;;;;;4.25;2.67;;;717.50;2355.20;;;;;;5022403;28;20153;-79
2021/08/02 09:03:58;;;;;;;6.43;2.97;;;742.40;2355.20;;;;;;5014347;28;20041;-79
2021/08/02 09:06:24;;;;;;;4.15;2.47;;;717.70;2329.60;;;;;;5029152;28;20148;-78
2021/08/02 09:08:50;;;;;;;5.10;3.13;;;742.40;2355.20;;;;;;5028607;28;20025;-78
2021/08/02 09:11:25;;;;;;;3.58;2.42;;;717.50;2329.60;;;;;;5026234;28;20052;-77
2021/08/02 09:13:51;;;;;;;4.43;3.15;;;717.40;2329.60;;;;;;5029020;28;20045;-77
2021/08/02 09:16:21;;;;;;;6.50;3.10;;;717.40;2304.00;;;;;;5029796;28;20065;-77
2021/08/02 09:19:02;;;;;;;5.28;2.65;;;717.30;2355.20;;;;;;5030562;28;20387;-78
2021/08/02 09:21:43;;;;;;;4.15;2.80;;;717.10;2355.20;;;;;;5037577;28;20056;-77
2021/08/02 09:24:08;;;;;;;6.47;2.85;;;717.40;2355.20;;;;;;5030097;28;20084;-77
2021/08/02 09:26:37;;;;;;;7.43;2.75;;;717.40;2329.60;;;;;;5030820;28;20436;-78
2021/08/02 09:29:04;;;;;;;4.78;2.33;;;717.30;2329.60;;;;;;5030980;28;20431;-77
2021/08/02 09:31:34;;;;;;;4.63;2.63;;;717.30;2304.00;;;;;;5030447;28;20018;-77
2021/08/02 09:34:03;;;;;;;6.38;3.03;;;717.30;2329.60;;;;;;5023904;28;20408;-79
2021/08/02 09:36:58;;;;;;;6.20;3.08;;;717.10;2355.20;;;;;;5028637;28;20079;-77
2021/08/02 09:39:30;;;;;;;4.15;2.90;;;717.00;2355.20;;;;;;5027953;28;20043;-78
2021/08/02 09:42:04;;;;;;;3.33;2.50;;;692.10;2329.60;;;;;;5034165;28;20452;-78
2021/08/02 09:44:30;;;;;;;6.40;2.95;;;716.90;2355.20;;;;;;5030787;28;20037;-78
2021/08/02 09:46:58;;;;;;;3.65;2.63;;;717.10;2329.60;;;;;;5032131;28;20044;-78
2021/08/02 09:49:25;;;;;;;5.45;2.58;;;717.50;2278.40;;;;;;5029886;28;20699;-77
2021/08/02 09:51:55;;;;;;;4.25;2.97;;;768.00;2201.60;;;;;;5028627;28;20021;-77
2021/08/02 09:54:30;;;;;;;7.00;2.97;;;768.70;2124.80;;;;;;5057504;28;20049;-78
2021/08/02 09:56:56;;;;;;;3.33;2.80;;;793.80;2099.20;;;;;;5034210;28;20017;-77
2021/08/02 09:59:23;;;;;;;8.77;4.10;;;794.50;2048.00;;;;;;5031028;28;20449;-77
2021/08/02 10:01:50;;;;;;;2.83;2.03;;;819.70;1996.80;;;;;;5031549;28;20022;-78
2021/08/02 10:04:17;;;;;;;4.72;2.42;;;844.80;1971.20;;;;;;5029387;28;20076;-77
2021/08/02 10:06:43;;;;;;;2.95;2.28;;;845.40;1920.00;;;;;;5029972;28;20067;-78
2021/08/02 10:09:13;;;;;;;4.05;2.17;;;870.60;1843.20;;;;;;5029167;28;20053;-78
2021/08/02 10:11:42;;;;;;;3.85;2.40;;;845.70;1792.00;;;;;;5031561;28;20022;-78
2021/08/02 10:14:11;;;;;;;4.25;2.20;;;870.80;1740.80;;;;;;5032912;28;20022;-78
2021/08/02 10:16:40;;;;;;;4.82;2.28;;;870.80;1715.20;;;;;;5031370;28;20028;-78
2021/08/02 10:19:08;;;;;;;3.63;2.33;;;870.70;1715.20;;;;;;5029933;28;20510;-78
2021/08/02 10:21:47;;;;;;;3.60;2.20;;;871.30;1664.00;;;;;;5032182;28;20036;-78
2021/08/02 10:24:16;;;;;;;3.90;2.00;;;896.30;1612.80;;;;;;5064124;28;20518;-77
2021/08/02 10:26:57;;;;;;;3.33;2.35;;;896.10;1612.80;;;;;;5033625;28;20059;-80
2021/08/02 10:29:23;;;;;;;3.42;2.10;;;870.90;1664.00;;;;;;5027914;28;20117;-77
2021/08/02 10:31:51;;;;;;;2.63;1.80;;;896.10;1612.80;;;;;;5027996;28;20056;-77
2021/08/02 10:34:19;;;;;;;3.90;2.05;;;871.20;1638.40;;;;;;5035251;28;20064;-80
2021/08/02 10:37:06;;;;;;;2.70;2.00;;;870.40;1664.00;;;;;;5032109;28;20396;-79
2021/08/02 10:39:35;;;;;;;4.32;1.88;;;845.30;1689.60;;;;;;5028656;28;20436;-79
2021/08/02 10:42:12;;;;;;;2.63;2.08;;;845.10;1715.20;;;;;;5031103;28;20041;-79
2021/08/02 10:44:39;;;;;;;4.88;2.42;;;845.50;1689.60;;;;;;5025919;28;20029;-79
2021/08/02 10:47:09;;;;;;;2.60;1.85;;;845.70;1664.00;;;;;;5031014;28;20384;-82
2021/08/02 10:49:46;;;;;;;2.92;2.30;;;845.00;1689.60;;;;;;5025222;28;20028;-82
2021/08/02 10:52:14;;;;;;;2.38;1.70;;;844.80;1715.20;;;;;;5026257;28;20025;-80
2021/08/02 10:54:40;;;;;;;4.30;2.88;;;844.80;1715.20;;;;;;5029646;28;20037;-80
2021/08/02 10:57:13;;;;;;;3.17;1.80;;;820.00;1715.20;;;;;;5022278;28;20068;-82
2021/08/02 10:59:38;;;;;;;4.03;2.00;;;819.90;1689.60;;;;;;5046274;28;20029;-81
2021/08/02 11:02:11;;;;;;;3.58;2.15;;;820.00;1715.20;;;;;;5031994;28;20026;-82
2021/08/02 11:04:38;;;;;;;3.55;2.33;;;845.30;1740.80;;;;;;5043668;28;20136;-80
2021/08/02 11:07:04;;;;;;;6.72;2.15;;;870.60;1689.60;;;;;;5032611;28;20029;-81
2021/08/02 11:09:32;;;;;;;3.15;1.80;;;871.20;1664.00;;;;;;5029942;28;20095;-81
2021/08/02 11:12:13;;;;;;;8.07;2.22;;;896.50;1612.80;;;;;;5030764;28;20029;-82
2021/08/02 11:14:54;;;;;;;3.83;2.03;;;922.10;1612.80;;;;;;5031329;28;20129;-81
2021/08/02 11:17:25;;;;;;;3.33;1.83;;;947.20;1536.00;;;;;;5027000;28;20038;-81
2021/08/02 11:20:02;;;;;;;7.78;2.22;;;947.90;1484.80;;;;;;5028919;28;20040;-81
2021/08/02 11:22:28;;;;;;;2.35;1.73;;;947.50;1510.40;;;;;;5029211;28;20079;-80
2021/08/02 11:24:57;;;;;;;3.28;2.10;;;972.80;1484.80;;;;;;5030291;28;20042;-80
2021/08/02 11:27:23;;;;;;;5.05;2.25;;;948.00;1459.20;;;;;;5025982;28;20488;-80
2021/08/02 11:29:52;;;;;;;4.82;2.47;;;973.00;1459.20;;;;;;5029327;28;20076;-81
2021/08/02 11:32:20;;;;;;;3.25;2.10;;;973.10;1459.20;;;;;;5034307;28;20455;-79
2021/08/02 11:34:51;;;;;;;2.88;2.00;;;973.30;1459.20;;;;;;5026665;28;20060;-76
2021/08/02 11:37:22;;;;;;;3.33;1.92;;;998.40;1433.60;;;;;;5031320;28;20088;-79
2021/08/02 11:40:04;;;;;;;3.30;1.80;;;998.90;1433.60;;;;;;5031320;28;20104;-79
2021/08/02 11:42:31;;;;;;;6.55;2.60;;;998.40;1382.40;;;;;;5029553;28;20102;-79
2021/08/02 11:44:58;;;;;;;3.08;2.20;;;973.10;1356.80;;;;;;5026061;28;20080;-78
2021/08/02 11:47:35;;;;;;;3.78;2.33;;;973.60;1331.20;;;;;;5039949;28;20368;-79
2021/08/02 11:50:02;;;;;;;3.13;2.00;;;973.30;1356.80;;;;;;5036791;28;20634;-79
2021/08/02 11:52:28;;;;;;;4.32;2.65;;;947.90;1331.20;;;;;;5027956;28;20057;-81
2021/08/02 11:55:02;;;;;;;4.93;2.67;;;947.20;1382.40;;;;;;5030665;28;20026;-80
2021/08/02 11:57:28;;;;;;;2.88;1.90;;;947.40;1356.80;;;;;;5029130;28;20022;-80
2021/08/02 12:00:04;;;;;;;4.55;2.17;;;947.80;1331.20;;;;;;5030204;28;20033;-80
2021/08/02 12:02:37;;;;;;;4.25;1.98;;;947.60;1331.20;;;;;;5028190;28;20091;-80
2021/08/02 12:05:06;;;;;;;3.92;3.22;;;947.80;1331.20;;;;;;5029236;28;20045;-77
2021/08/02 12:07:32;;;;;;;3.63;2.00;;;947.50;1356.80;;;;;;5030467;28;20051;-79
2021/08/02 12:10:22;;;;;;;4.20;2.25;;;947.80;1331.20;;;;;;5029184;28;20446;-80
2021/08/02 12:13:08;;;;;;;3.17;1.83;;;947.70;1331.20;;;;;;5030603;28;20014;-80
2021/08/02 12:15:35;;;;;;;2.70;2.00;;;973.00;1331.20;;;;;;5027765;28;20041;-81
2021/08/02 12:18:01;;;;;;;4.00;2.35;;;973.20;1331.20;;;;;;5030257;28;20036;-80
2021/08/02 12:20:39;;;;;;;4.00;3.20;;;998.40;1331.20;;;;;;5029172;28;20373;-80
2021/08/02 12:23:07;;;;;;;4.38;2.92;;;973.50;1305.60;;;;;;5029701;28;20515;-79